Terminal Aerodrome Forecast
Issued by NWS Dallas/Fort Worth, TX

Home | Current Version | Previous Version | Text Only | Print | Product List | Glossary On
Versions: 1 2 3 4 5 6 7 8 9 10 11 12 13 14 15 16 17 18 19 20 21 22 23 24
000
FTUS44 KFWD 271100
TAFDFW
TAF
KDFW 271122Z 2712/2818 01008KT P6SM SKC
     FM271600 07006KT P6SM SKC
     FM272100 14005KT P6SM SKC
     FM280200 17007KT P6SM SKC
     FM281400 18014KT P6SM FEW030=

USA.gov is the U.S. government's official web portal to all federal, state and local government web resources and services.